sensor_id;sensor_type;location;lat;lon;timestamp;P1;durP1;ratioP1;P2;durP2;ratioP2
64011;SDS011;50211;52.768;12.124;2022-07-29T00:00:37;7.45;;;1.90;;
64011;SDS011;50211;52.768;12.124;2022-07-29T00:03:02;3.80;;;2.33;;
64011;SDS011;50211;52.768;12.124;2022-07-29T00:05:28;2.35;;;2.05;;
64011;SDS011;50211;52.768;12.124;2022-07-29T00:07:53;4.78;;;1.77;;
64011;SDS011;50211;52.768;12.124;2022-07-29T00:10:19;5.70;;;1.75;;
64011;SDS011;50211;52.768;12.124;2022-07-29T00:12:45;6.72;;;2.00;;
64011;SDS011;50211;52.768;12.124;2022-07-29T00:15:10;4.18;;;1.98;;
64011;SDS011;50211;52.768;12.124;2022-07-29T00:17:36;5.97;;;2.00;;
64011;SDS011;50211;52.768;12.124;2022-07-29T00:20:02;2.95;;;1.70;;
64011;SDS011;50211;52.768;12.124;2022-07-29T00:22:28;6.30;;;2.25;;
64011;SDS011;50211;52.768;12.124;2022-07-29T00:24:54;5.07;;;2.00;;
64011;SDS011;50211;52.768;12.124;2022-07-29T00:27:19;3.83;;;1.98;;
64011;SDS011;50211;52.768;12.124;2022-07-29T00:29:45;3.80;;;1.85;;
64011;SDS011;50211;52.768;12.124;2022-07-29T00:32:11;6.00;;;2.13;;
64011;SDS011;50211;52.768;12.124;2022-07-29T00:34:37;3.70;;;2.13;;
64011;SDS011;50211;52.768;12.124;2022-07-29T00:37:21;4.32;;;1.95;;
64011;SDS011;50211;52.768;12.124;2022-07-29T00:39:46;2.47;;;2.10;;
64011;SDS011;50211;52.768;12.124;2022-07-29T00:42:12;4.03;;;2.57;;
64011;SDS011;50211;52.768;12.124;2022-07-29T00:44:38;11.73;;;2.72;;
64011;SDS011;50211;52.768;12.124;2022-07-29T00:47:05;4.93;;;2.00;;
64011;SDS011;50211;52.768;12.124;2022-07-29T00:49:32;3.75;;;2.47;;
64011;SDS011;50211;52.768;12.124;2022-07-29T00:52:00;5.53;;;2.20;;
64011;SDS011;50211;52.768;12.124;2022-07-29T00:54:29;5.57;;;2.42;;
64011;SDS011;50211;52.768;12.124;2022-07-29T00:56:56;5.03;;;2.30;;
64011;SDS011;50211;52.768;12.124;2022-07-29T00:59:23;5.20;;;2.40;;
64011;SDS011;50211;52.768;12.124;2022-07-29T01:01:48;6.73;;;2.77;;
64011;SDS011;50211;52.768;12.124;2022-07-29T01:04:14;6.57;;;2.33;;
64011;SDS011;50211;52.768;12.124;2022-07-29T01:06:39;5.47;;;3.10;;
64011;SDS011;50211;52.768;12.124;2022-07-29T01:09:06;3.95;;;2.40;;
64011;SDS011;50211;52.768;12.124;2022-07-29T01:11:32;6.90;;;2.45;;
64011;SDS011;50211;52.768;12.124;2022-07-29T01:13:59;3.40;;;2.38;;
64011;SDS011;50211;52.768;12.124;2022-07-29T01:16:26;4.33;;;2.80;;
64011;SDS011;50211;52.768;12.124;2022-07-29T01:18:58;6.05;;;2.80;;
64011;SDS011;50211;52.768;12.124;2022-07-29T01:21:55;6.15;;;2.58;;
64011;SDS011;50211;52.768;12.124;2022-07-29T01:24:37;9.15;;;2.60;;
64011;SDS011;50211;52.768;12.124;2022-07-29T01:27:25;7.03;;;2.78;;
64011;SDS011;50211;52.768;12.124;2022-07-29T01:30:12;5.63;;;2.50;;
64011;SDS011;50211;52.768;12.124;2022-07-29T01:32:38;4.85;;;2.72;;
64011;SDS011;50211;52.768;12.124;2022-07-29T01:40:29;4.57;;;3.00;;
64011;SDS011;50211;52.768;12.124;2022-07-29T01:43:03;5.30;;;2.67;;
64011;SDS011;50211;52.768;12.124;2022-07-29T01:45:38;8.23;;;3.00;;
64011;SDS011;50211;52.768;12.124;2022-07-29T01:48:10;7.43;;;2.93;;
64011;SDS011;50211;52.768;12.124;2022-07-29T01:51:14;7.97;;;3.00;;
64011;SDS011;50211;52.768;12.124;2022-07-29T01:53:55;6.07;;;2.40;;
64011;SDS011;50211;52.768;12.124;2022-07-29T01:56:29;4.60;;;2.47;;
64011;SDS011;50211;52.768;12.124;2022-07-29T01:58:58;4.72;;;2.40;;
64011;SDS011;50211;52.768;12.124;2022-07-29T02:01:25;5.13;;;2.85;;
64011;SDS011;50211;52.768;12.124;2022-07-29T02:03:52;7.97;;;2.90;;
64011;SDS011;50211;52.768;12.124;2022-07-29T02:06:20;4.10;;;2.83;;
64011;SDS011;50211;52.768;12.124;2022-07-29T02:08:47;7.20;;;2.57;;
64011;SDS011;50211;52.768;12.124;2022-07-29T02:11:14;5.22;;;2.85;;
64011;SDS011;50211;52.768;12.124;2022-07-29T02:13:40;5.75;;;3.10;;
64011;SDS011;50211;52.768;12.124;2022-07-29T02:16:07;7.05;;;3.00;;
64011;SDS011;50211;52.768;12.124;2022-07-29T02:18:34;4.78;;;2.70;;
64011;SDS011;50211;52.768;12.124;2022-07-29T02:21:02;6.72;;;2.92;;
64011;SDS011;50211;52.768;12.124;2022-07-29T02:23:28;4.15;;;3.10;;
64011;SDS011;50211;52.768;12.124;2022-07-29T02:25:57;3.80;;;2.80;;
64011;SDS011;50211;52.768;12.124;2022-07-29T02:28:25;5.45;;;3.30;;
64011;SDS011;50211;52.768;12.124;2022-07-29T02:30:53;6.80;;;3.20;;
64011;SDS011;50211;52.768;12.124;2022-07-29T02:33:23;8.70;;;2.90;;
64011;SDS011;50211;52.768;12.124;2022-07-29T02:35:50;6.73;;;2.60;;
64011;SDS011;50211;52.768;12.124;2022-07-29T02:38:17;8.20;;;3.10;;
64011;SDS011;50211;52.768;12.124;2022-07-29T02:41:05;5.35;;;3.50;;
64011;SDS011;50211;52.768;12.124;2022-07-29T02:43:36;5.80;;;2.87;;
64011;SDS011;50211;52.768;12.124;2022-07-29T02:46:04;4.28;;;2.75;;
64011;SDS011;50211;52.768;12.124;2022-07-29T02:48:33;6.70;;;2.90;;
64011;SDS011;50211;52.768;12.124;2022-07-29T02:51:10;5.80;;;2.90;;
64011;SDS011;50211;52.768;12.124;2022-07-29T02:53:40;5.63;;;2.70;;
64011;SDS011;50211;52.768;12.124;2022-07-29T02:56:10;5.88;;;3.13;;
64011;SDS011;50211;52.768;12.124;2022-07-29T02:58:45;7.37;;;3.13;;
64011;SDS011;50211;52.768;12.124;2022-07-29T03:01:17;5.68;;;3.05;;
64011;SDS011;50211;52.768;12.124;2022-07-29T03:03:49;11.07;;;3.15;;
64011;SDS011;50211;52.768;12.124;2022-07-29T03:06:17;7.70;;;3.20;;
64011;SDS011;50211;52.768;12.124;2022-07-29T03:08:46;8.43;;;3.00;;
64011;SDS011;50211;52.768;12.124;2022-07-29T03:11:13;5.30;;;2.97;;
64011;SDS011;50211;52.768;12.124;2022-07-29T03:13:39;4.97;;;2.90;;
64011;SDS011;50211;52.768;12.124;2022-07-29T03:16:05;7.13;;;3.03;;
64011;SDS011;50211;52.768;12.124;2022-07-29T03:18:33;10.13;;;3.28;;
64011;SDS011;50211;52.768;12.124;2022-07-29T03:20:59;5.60;;;3.08;;
64011;SDS011;50211;52.768;12.124;2022-07-29T03:23:24;5.68;;;2.90;;
64011;SDS011;50211;52.768;12.124;2022-07-29T03:25:53;5.10;;;3.03;;
64011;SDS011;50211;52.768;12.124;2022-07-29T03:28:19;6.43;;;2.63;;
64011;SDS011;50211;52.768;12.124;2022-07-29T03:30:45;8.57;;;3.17;;
64011;SDS011;50211;52.768;12.124;2022-07-29T03:33:11;5.50;;;2.97;;
64011;SDS011;50211;52.768;12.124;2022-07-29T03:35:37;5.43;;;2.70;;
64011;SDS011;50211;52.768;12.124;2022-07-29T03:38:03;5.55;;;3.05;;
64011;SDS011;50211;52.768;12.124;2022-07-29T03:40:40;4.63;;;2.90;;
64011;SDS011;50211;52.768;12.124;2022-07-29T03:43:17;3.60;;;2.60;;
64011;SDS011;50211;52.768;12.124;2022-07-29T03:45:47;6.28;;;3.17;;
64011;SDS011;50211;52.768;12.124;2022-07-29T03:48:15;6.80;;;3.13;;
64011;SDS011;50211;52.768;12.124;2022-07-29T03:50:43;3.90;;;2.80;;
64011;SDS011;50211;52.768;12.124;2022-07-29T03:53:09;6.40;;;3.35;;
64011;SDS011;50211;52.768;12.124;2022-07-29T03:55:36;9.10;;;3.67;;
64011;SDS011;50211;52.768;12.124;2022-07-29T03:58:06;5.72;;;2.80;;
64011;SDS011;50211;52.768;12.124;2022-07-29T04:00:33;6.97;;;3.08;;
64011;SDS011;50211;52.768;12.124;2022-07-29T04:02:59;7.03;;;2.93;;
64011;SDS011;50211;52.768;12.124;2022-07-29T04:05:25;10.00;;;3.00;;
64011;SDS011;50211;52.768;12.124;2022-07-29T04:07:50;8.50;;;3.00;;
64011;SDS011;50211;52.768;12.124;2022-07-29T04:10:16;7.22;;;2.75;;
64011;SDS011;50211;52.768;12.124;2022-07-29T04:12:42;8.37;;;3.23;;
64011;SDS011;50211;52.768;12.124;2022-07-29T04:15:07;5.40;;;3.40;;
64011;SDS011;50211;52.768;12.124;2022-07-29T04:17:33;6.37;;;2.47;;
64011;SDS011;50211;52.768;12.124;2022-07-29T04:19:59;7.30;;;2.75;;
64011;SDS011;50211;52.768;12.124;2022-07-29T04:22:24;3.60;;;3.03;;
64011;SDS011;50211;52.768;12.124;2022-07-29T04:24:50;5.30;;;3.03;;
64011;SDS011;50211;52.768;12.124;2022-07-29T04:27:15;7.20;;;3.10;;
64011;SDS011;50211;52.768;12.124;2022-07-29T04:29:41;7.40;;;3.35;;
64011;SDS011;50211;52.768;12.124;2022-07-29T04:32:06;6.20;;;3.63;;
64011;SDS011;50211;52.768;12.124;2022-07-29T04:34:32;6.03;;;2.85;;
64011;SDS011;50211;52.768;12.124;2022-07-29T04:36:57;8.70;;;3.50;;
64011;SDS011;50211;52.768;12.124;2022-07-29T04:39:23;4.07;;;3.33;;
64011;SDS011;50211;52.768;12.124;2022-07-29T04:41:49;5.05;;;3.40;;
64011;SDS011;50211;52.768;12.124;2022-07-29T04:44:15;5.47;;;3.08;;
64011;SDS011;50211;52.768;12.124;2022-07-29T04:46:41;6.50;;;3.50;;
64011;SDS011;50211;52.768;12.124;2022-07-29T04:49:06;6.88;;;2.83;;
64011;SDS011;50211;52.768;12.124;2022-07-29T04:51:32;8.75;;;3.20;;
64011;SDS011;50211;52.768;12.124;2022-07-29T04:53:58;7.88;;;3.25;;
64011;SDS011;50211;52.768;12.124;2022-07-29T04:56:23;8.38;;;3.17;;
64011;SDS011;50211;52.768;12.124;2022-07-29T04:58:49;6.18;;;3.00;;
64011;SDS011;50211;52.768;12.124;2022-07-29T05:01:14;5.57;;;3.25;;
64011;SDS011;50211;52.768;12.124;2022-07-29T05:03:40;6.93;;;2.72;;
64011;SDS011;50211;52.768;12.124;2022-07-29T05:06:06;6.97;;;2.83;;
64011;SDS011;50211;52.768;12.124;2022-07-29T05:08:32;12.45;;;3.20;;
64011;SDS011;50211;52.768;12.124;2022-07-29T05:10:57;4.10;;;2.93;;
64011;SDS011;50211;52.768;12.124;2022-07-29T05:13:23;7.13;;;3.05;;
64011;SDS011;50211;52.768;12.124;2022-07-29T05:15:48;6.18;;;2.75;;
64011;SDS011;50211;52.768;12.124;2022-07-29T05:18:14;5.53;;;2.58;;
64011;SDS011;50211;52.768;12.124;2022-07-29T05:20:40;4.50;;;3.10;;
64011;SDS011;50211;52.768;12.124;2022-07-29T05:23:06;4.40;;;2.92;;
64011;SDS011;50211;52.768;12.124;2022-07-29T05:25:31;8.57;;;2.72;;
64011;SDS011;50211;52.768;12.124;2022-07-29T05:27:57;6.28;;;3.45;;
64011;SDS011;50211;52.768;12.124;2022-07-29T05:30:23;4.88;;;2.90;;
64011;SDS011;50211;52.768;12.124;2022-07-29T05:32:48;7.60;;;2.75;;
64011;SDS011;50211;52.768;12.124;2022-07-29T05:35:14;6.63;;;2.72;;
64011;SDS011;50211;52.768;12.124;2022-07-29T05:37:40;6.30;;;2.60;;
64011;SDS011;50211;52.768;12.124;2022-07-29T05:40:05;7.13;;;2.85;;
64011;SDS011;50211;52.768;12.124;2022-07-29T05:42:31;5.03;;;2.30;;
64011;SDS011;50211;52.768;12.124;2022-07-29T05:44:57;9.93;;;2.95;;
64011;SDS011;50211;52.768;12.124;2022-07-29T05:47:23;6.05;;;2.72;;
64011;SDS011;50211;52.768;12.124;2022-07-29T05:49:49;5.95;;;2.70;;
64011;SDS011;50211;52.768;12.124;2022-07-29T05:52:15;5.85;;;2.50;;
64011;SDS011;50211;52.768;12.124;2022-07-29T05:54:41;10.85;;;2.63;;
64011;SDS011;50211;52.768;12.124;2022-07-29T05:57:06;4.95;;;2.20;;
64011;SDS011;50211;52.768;12.124;2022-07-29T05:59:36;5.22;;;2.38;;
64011;SDS011;50211;52.768;12.124;2022-07-29T06:02:03;5.03;;;2.72;;
64011;SDS011;50211;52.768;12.124;2022-07-29T06:04:30;5.40;;;2.42;;
64011;SDS011;50211;52.768;12.124;2022-07-29T06:06:56;3.00;;;2.40;;
64011;SDS011;50211;52.768;12.124;2022-07-29T06:09:21;13.98;;;3.03;;
64011;SDS011;50211;52.768;12.124;2022-07-29T06:11:47;3.78;;;2.53;;
64011;SDS011;50211;52.768;12.124;2022-07-29T06:14:13;7.68;;;2.40;;
64011;SDS011;50211;52.768;12.124;2022-07-29T06:16:39;3.67;;;2.70;;
64011;SDS011;50211;52.768;12.124;2022-07-29T06:19:04;3.63;;;2.55;;
64011;SDS011;50211;52.768;12.124;2022-07-29T06:21:30;6.38;;;2.65;;
64011;SDS011;50211;52.768;12.124;2022-07-29T06:23:55;11.18;;;3.05;;
64011;SDS011;50211;52.768;12.124;2022-07-29T06:26:20;3.40;;;2.38;;
64011;SDS011;50211;52.768;12.124;2022-07-29T06:28:46;10.30;;;2.80;;
64011;SDS011;50211;52.768;12.124;2022-07-29T06:31:11;7.65;;;2.63;;
64011;SDS011;50211;52.768;12.124;2022-07-29T06:33:37;5.15;;;2.60;;
64011;SDS011;50211;52.768;12.124;2022-07-29T06:36:06;15.73;;;3.97;;
64011;SDS011;50211;52.768;12.124;2022-07-29T06:38:32;5.20;;;2.80;;
64011;SDS011;50211;52.768;12.124;2022-07-29T06:40:58;3.70;;;2.58;;
64011;SDS011;50211;52.768;12.124;2022-07-29T06:43:33;6.28;;;2.75;;
64011;SDS011;50211;52.768;12.124;2022-07-29T06:46:04;11.70;;;2.78;;
64011;SDS011;50211;52.768;12.124;2022-07-29T06:48:31;4.53;;;2.45;;
64011;SDS011;50211;52.768;12.124;2022-07-29T06:50:57;4.57;;;2.75;;
64011;SDS011;50211;52.768;12.124;2022-07-29T06:53:23;3.40;;;2.30;;
64011;SDS011;50211;52.768;12.124;2022-07-29T06:55:49;3.63;;;2.15;;
64011;SDS011;50211;52.768;12.124;2022-07-29T06:58:14;8.68;;;2.60;;
64011;SDS011;50211;52.768;12.124;2022-07-29T07:00:42;6.05;;;2.42;;
64011;SDS011;50211;52.768;12.124;2022-07-29T07:03:09;4.65;;;2.35;;
64011;SDS011;50211;52.768;12.124;2022-07-29T07:05:34;6.93;;;2.80;;
64011;SDS011;50211;52.768;12.124;2022-07-29T07:08:00;8.45;;;2.33;;
64011;SDS011;50211;52.768;12.124;2022-07-29T07:10:25;7.63;;;2.45;;
64011;SDS011;50211;52.768;12.124;2022-07-29T07:12:51;5.63;;;2.38;;
64011;SDS011;50211;52.768;12.124;2022-07-29T07:15:17;10.23;;;2.50;;
64011;SDS011;50211;52.768;12.124;2022-07-29T07:17:46;5.60;;;2.28;;
64011;SDS011;50211;52.768;12.124;2022-07-29T07:20:13;4.10;;;2.10;;
64011;SDS011;50211;52.768;12.124;2022-07-29T07:22:38;8.50;;;2.28;;
64011;SDS011;50211;52.768;12.124;2022-07-29T07:25:04;7.05;;;2.30;;
64011;SDS011;50211;52.768;12.124;2022-07-29T07:27:30;6.20;;;2.47;;
64011;SDS011;50211;52.768;12.124;2022-07-29T07:29:55;4.63;;;2.10;;
64011;SDS011;50211;52.768;12.124;2022-07-29T07:32:21;7.60;;;2.88;;
64011;SDS011;50211;52.768;12.124;2022-07-29T07:34:47;2.97;;;1.88;;
64011;SDS011;50211;52.768;12.124;2022-07-29T07:37:12;8.52;;;2.10;;
64011;SDS011;50211;52.768;12.124;2022-07-29T07:39:39;4.75;;;2.05;;
64011;SDS011;50211;52.768;12.124;2022-07-29T07:42:05;10.73;;;2.28;;
64011;SDS011;50211;52.768;12.124;2022-07-29T07:44:30;6.40;;;2.60;;
64011;SDS011;50211;52.768;12.124;2022-07-29T07:46:56;5.30;;;2.40;;
64011;SDS011;50211;52.768;12.124;2022-07-29T07:49:21;6.75;;;2.10;;
64011;SDS011;50211;52.768;12.124;2022-07-29T07:51:47;6.45;;;2.60;;
64011;SDS011;50211;52.768;12.124;2022-07-29T07:54:12;4.38;;;2.08;;
64011;SDS011;50211;52.768;12.124;2022-07-29T07:56:38;7.72;;;2.38;;
64011;SDS011;50211;52.768;12.124;2022-07-29T07:59:03;5.57;;;2.38;;
64011;SDS011;50211;52.768;12.124;2022-07-29T08:01:29;7.65;;;2.33;;
64011;SDS011;50211;52.768;12.124;2022-07-29T08:03:54;4.43;;;2.13;;
64011;SDS011;50211;52.768;12.124;2022-07-29T08:06:19;6.03;;;2.13;;
64011;SDS011;50211;52.768;12.124;2022-07-29T08:08:45;5.95;;;2.30;;
64011;SDS011;50211;52.768;12.124;2022-07-29T08:11:10;3.90;;;2.15;;
64011;SDS011;50211;52.768;12.124;2022-07-29T08:13:36;5.72;;;2.33;;
64011;SDS011;50211;52.768;12.124;2022-07-29T08:16:02;6.28;;;2.65;;
64011;SDS011;50211;52.768;12.124;2022-07-29T08:18:38;4.18;;;2.40;;
64011;SDS011;50211;52.768;12.124;2022-07-29T08:21:05;4.57;;;2.25;;
64011;SDS011;50211;52.768;12.124;2022-07-29T08:23:31;5.35;;;2.25;;
64011;SDS011;50211;52.768;12.124;2022-07-29T08:26:04;4.30;;;1.92;;
64011;SDS011;50211;52.768;12.124;2022-07-29T08:28:30;4.80;;;2.05;;
64011;SDS011;50211;52.768;12.124;2022-07-29T08:30:56;4.68;;;2.53;;
64011;SDS011;50211;52.768;12.124;2022-07-29T08:33:21;9.60;;;2.72;;
64011;SDS011;50211;52.768;12.124;2022-07-29T08:35:47;4.60;;;2.20;;
64011;SDS011;50211;52.768;12.124;2022-07-29T08:38:12;5.55;;;2.40;;
64011;SDS011;50211;52.768;12.124;2022-07-29T08:40:38;8.00;;;2.08;;
64011;SDS011;50211;52.768;12.124;2022-07-29T08:43:05;5.13;;;2.10;;
64011;SDS011;50211;52.768;12.124;2022-07-29T08:45:51;6.50;;;2.20;;
64011;SDS011;50211;52.768;12.124;2022-07-29T08:48:22;3.58;;;2.13;;
64011;SDS011;50211;52.768;12.124;2022-07-29T08:50:52;5.03;;;2.30;;
64011;SDS011;50211;52.768;12.124;2022-07-29T08:53:20;6.40;;;2.25;;
64011;SDS011;50211;52.768;12.124;2022-07-29T08:55:48;8.05;;;2.08;;
64011;SDS011;50211;52.768;12.124;2022-07-29T08:58:14;7.53;;;2.38;;
64011;SDS011;50211;52.768;12.124;2022-07-29T09:00:42;7.07;;;2.10;;
64011;SDS011;50211;52.768;12.124;2022-07-29T09:03:10;6.28;;;2.72;;
64011;SDS011;50211;52.768;12.124;2022-07-29T09:05:40;6.32;;;2.72;;
64011;SDS011;50211;52.768;12.124;2022-07-29T09:08:07;4.35;;;2.20;;
64011;SDS011;50211;52.768;12.124;2022-07-29T09:10:34;7.07;;;2.25;;
64011;SDS011;50211;52.768;12.124;2022-07-29T09:13:00;3.40;;;1.92;;
64011;SDS011;50211;52.768;12.124;2022-07-29T09:15:25;10.75;;;2.22;;
64011;SDS011;50211;52.768;12.124;2022-07-29T09:17:51;4.25;;;2.03;;
64011;SDS011;50211;52.768;12.124;2022-07-29T09:20:18;5.63;;;2.20;;
64011;SDS011;50211;52.768;12.124;2022-07-29T09:22:45;5.90;;;1.88;;
64011;SDS011;50211;52.768;12.124;2022-07-29T09:25:13;4.82;;;2.33;;
64011;SDS011;50211;52.768;12.124;2022-07-29T09:28:04;17.02;;;2.13;;
64011;SDS011;50211;52.768;12.124;2022-07-29T09:30:51;5.35;;;1.90;;
64011;SDS011;50211;52.768;12.124;2022-07-29T09:33:21;4.10;;;1.85;;
64011;SDS011;50211;52.768;12.124;2022-07-29T09:35:58;2.63;;;1.75;;
64011;SDS011;50211;52.768;12.124;2022-07-29T09:38:28;5.60;;;2.05;;
64011;SDS011;50211;52.768;12.124;2022-07-29T09:41:00;3.13;;;2.17;;
64011;SDS011;50211;52.768;12.124;2022-07-29T09:43:27;5.28;;;1.90;;
64011;SDS011;50211;52.768;12.124;2022-07-29T09:45:53;5.03;;;2.60;;
64011;SDS011;50211;52.768;12.124;2022-07-29T09:48:19;6.07;;;2.38;;
64011;SDS011;50211;52.768;12.124;2022-07-29T09:50:46;6.38;;;2.13;;
64011;SDS011;50211;52.768;12.124;2022-07-29T09:56:12;6.65;;;2.00;;
64011;SDS011;50211;52.768;12.124;2022-07-29T09:58:39;7.32;;;2.13;;
64011;SDS011;50211;52.768;12.124;2022-07-29T10:01:04;7.82;;;2.50;;
64011;SDS011;50211;52.768;12.124;2022-07-29T10:03:30;5.60;;;2.30;;
64011;SDS011;50211;52.768;12.124;2022-07-29T10:06:08;6.30;;;2.08;;
64011;SDS011;50211;52.768;12.124;2022-07-29T10:08:35;6.68;;;2.60;;
64011;SDS011;50211;52.768;12.124;2022-07-29T10:11:11;5.28;;;1.88;;
64011;SDS011;50211;52.768;12.124;2022-07-29T10:13:38;6.05;;;1.98;;
64011;SDS011;50211;52.768;12.124;2022-07-29T10:16:06;4.13;;;2.20;;
64011;SDS011;50211;52.768;12.124;2022-07-29T10:18:32;3.33;;;1.92;;
64011;SDS011;50211;52.768;12.124;2022-07-29T10:20:58;4.40;;;1.73;;
64011;SDS011;50211;52.768;12.124;2022-07-29T10:23:25;5.88;;;1.90;;
64011;SDS011;50211;52.768;12.124;2022-07-29T10:25:54;5.38;;;1.83;;
64011;SDS011;50211;52.768;12.124;2022-07-29T10:28:20;4.07;;;1.90;;
64011;SDS011;50211;52.768;12.124;2022-07-29T10:30:46;3.60;;;1.75;;
64011;SDS011;50211;52.768;12.124;2022-07-29T10:33:24;4.68;;;2.00;;
64011;SDS011;50211;52.768;12.124;2022-07-29T10:44:23;3.42;;;1.85;;
64011;SDS011;50211;52.768;12.124;2022-07-29T10:46:50;19.27;;;2.47;;
64011;SDS011;50211;52.768;12.124;2022-07-29T10:52:02;8.40;;;1.92;;
64011;SDS011;50211;52.768;12.124;2022-07-29T10:57:21;4.38;;;1.65;;
64011;SDS011;50211;52.768;12.124;2022-07-29T10:59:51;2.75;;;1.70;;
64011;SDS011;50211;52.768;12.124;2022-07-29T11:07:27;3.67;;;1.70;;
64011;SDS011;50211;52.768;12.124;2022-07-29T11:15:10;7.28;;;1.60;;
64011;SDS011;50211;52.768;12.124;2022-07-29T11:23:19;2.22;;;1.40;;
64011;SDS011;50211;52.768;12.124;2022-07-29T11:26:12;3.33;;;1.50;;
64011;SDS011;50211;52.768;12.124;2022-07-29T11:28:50;6.97;;;2.00;;
64011;SDS011;50211;52.768;12.124;2022-07-29T11:31:32;6.05;;;1.60;;
64011;SDS011;50211;52.768;12.124;2022-07-29T11:34:15;6.32;;;1.88;;
64011;SDS011;50211;52.768;12.124;2022-07-29T11:39:37;6.47;;;1.80;;
64011;SDS011;50211;52.768;12.124;2022-07-29T11:44:53;3.40;;;1.50;;
64011;SDS011;50211;52.768;12.124;2022-07-29T11:47:21;3.22;;;2.00;;
64011;SDS011;50211;52.768;12.124;2022-07-29T11:49:47;8.10;;;1.50;;
64011;SDS011;50211;52.768;12.124;2022-07-29T11:52:13;6.85;;;1.58;;
64011;SDS011;50211;52.768;12.124;2022-07-29T11:54:38;5.63;;;1.55;;
64011;SDS011;50211;52.768;12.124;2022-07-29T11:57:07;7.45;;;1.70;;
64011;SDS011;50211;52.768;12.124;2022-07-29T11:59:38;3.80;;;1.40;;
64011;SDS011;50211;52.768;12.124;2022-07-29T12:02:05;6.65;;;1.42;;
64011;SDS011;50211;52.768;12.124;2022-07-29T12:04:30;5.90;;;1.63;;
64011;SDS011;50211;52.768;12.124;2022-07-29T12:06:56;5.53;;;1.67;;
64011;SDS011;50211;52.768;12.124;2022-07-29T12:09:22;2.30;;;1.52;;
64011;SDS011;50211;52.768;12.124;2022-07-29T12:11:57;6.65;;;1.63;;
64011;SDS011;50211;52.768;12.124;2022-07-29T12:16:56;4.90;;;1.58;;
64011;SDS011;50211;52.768;12.124;2022-07-29T12:19:22;4.85;;;1.70;;
64011;SDS011;50211;52.768;12.124;2022-07-29T12:21:48;3.45;;;1.30;;
64011;SDS011;50211;52.768;12.124;2022-07-29T12:24:18;5.22;;;1.40;;
64011;SDS011;50211;52.768;12.124;2022-07-29T12:26:54;2.35;;;1.42;;
64011;SDS011;50211;52.768;12.124;2022-07-29T12:29:21;4.65;;;1.52;;
64011;SDS011;50211;52.768;12.124;2022-07-29T12:31:50;2.75;;;1.70;;
64011;SDS011;50211;52.768;12.124;2022-07-29T12:34:19;3.53;;;1.48;;
64011;SDS011;50211;52.768;12.124;2022-07-29T12:36:46;2.30;;;1.67;;
64011;SDS011;50211;52.768;12.124;2022-07-29T12:39:12;4.03;;;1.40;;
64011;SDS011;50211;52.768;12.124;2022-07-29T12:41:40;2.15;;;1.50;;
64011;SDS011;50211;52.768;12.124;2022-07-29T12:44:06;6.35;;;1.70;;
64011;SDS011;50211;52.768;12.124;2022-07-29T12:46:31;3.50;;;1.52;;
64011;SDS011;50211;52.768;12.124;2022-07-29T12:48:57;5.97;;;1.60;;
64011;SDS011;50211;52.768;12.124;2022-07-29T12:54:06;2.75;;;1.70;;
64011;SDS011;50211;52.768;12.124;2022-07-29T12:56:44;3.47;;;1.70;;
64011;SDS011;50211;52.768;12.124;2022-07-29T12:59:11;1.98;;;1.70;;
64011;SDS011;50211;52.768;12.124;2022-07-29T13:01:37;2.42;;;1.40;;
64011;SDS011;50211;52.768;12.124;2022-07-29T13:04:03;1.42;;;1.23;;
64011;SDS011;50211;52.768;12.124;2022-07-29T13:06:30;6.68;;;1.42;;
64011;SDS011;50211;52.768;12.124;2022-07-29T13:09:04;3.92;;;1.65;;
64011;SDS011;50211;52.768;12.124;2022-07-29T13:11:50;6.65;;;1.90;;
64011;SDS011;50211;52.768;12.124;2022-07-29T13:14:31;3.20;;;1.88;;
64011;SDS011;50211;52.768;12.124;2022-07-29T13:17:05;5.85;;;2.38;;
64011;SDS011;50211;52.768;12.124;2022-07-29T13:19:35;2.25;;;1.63;;
64011;SDS011;50211;52.768;12.124;2022-07-29T13:22:05;4.32;;;1.73;;
64011;SDS011;50211;52.768;12.124;2022-07-29T13:24:31;4.75;;;1.65;;
64011;SDS011;50211;52.768;12.124;2022-07-29T13:26:57;2.72;;;1.50;;
64011;SDS011;50211;52.768;12.124;2022-07-29T13:29:23;4.15;;;1.65;;
64011;SDS011;50211;52.768;12.124;2022-07-29T13:31:48;6.28;;;1.80;;
64011;SDS011;50211;52.768;12.124;2022-07-29T13:34:14;4.63;;;1.75;;
64011;SDS011;50211;52.768;12.124;2022-07-29T13:36:39;4.38;;;1.60;;
64011;SDS011;50211;52.768;12.124;2022-07-29T13:39:05;7.38;;;1.70;;
64011;SDS011;50211;52.768;12.124;2022-07-29T13:41:30;6.30;;;1.90;;
64011;SDS011;50211;52.768;12.124;2022-07-29T13:43:56;3.42;;;1.50;;
64011;SDS011;50211;52.768;12.124;2022-07-29T13:46:21;10.88;;;1.60;;
64011;SDS011;50211;52.768;12.124;2022-07-29T13:48:47;2.47;;;1.52;;
64011;SDS011;50211;52.768;12.124;2022-07-29T13:51:12;4.68;;;2.13;;
64011;SDS011;50211;52.768;12.124;2022-07-29T13:53:38;2.25;;;1.80;;
64011;SDS011;50211;52.768;12.124;2022-07-29T13:56:03;4.80;;;1.60;;
64011;SDS011;50211;52.768;12.124;2022-07-29T13:58:31;3.10;;;1.88;;
64011;SDS011;50211;52.768;12.124;2022-07-29T14:00:57;9.45;;;2.03;;
64011;SDS011;50211;52.768;12.124;2022-07-29T14:03:23;4.55;;;1.70;;
64011;SDS011;50211;52.768;12.124;2022-07-29T14:05:49;4.95;;;1.90;;
64011;SDS011;50211;52.768;12.124;2022-07-29T14:08:14;7.60;;;1.98;;
64011;SDS011;50211;52.768;12.124;2022-07-29T14:10:40;2.95;;;1.73;;
64011;SDS011;50211;52.768;12.124;2022-07-29T14:13:05;3.67;;;1.70;;
64011;SDS011;50211;52.768;12.124;2022-07-29T14:15:31;4.55;;;2.00;;
64011;SDS011;50211;52.768;12.124;2022-07-29T14:17:56;7.75;;;1.98;;
64011;SDS011;50211;52.768;12.124;2022-07-29T14:20:22;2.70;;;1.70;;
64011;SDS011;50211;52.768;12.124;2022-07-29T14:22:47;1.90;;;1.50;;
64011;SDS011;50211;52.768;12.124;2022-07-29T14:25:13;6.07;;;1.58;;
64011;SDS011;50211;52.768;12.124;2022-07-29T14:27:38;5.18;;;2.00;;
64011;SDS011;50211;52.768;12.124;2022-07-29T14:30:05;9.70;;;1.70;;
64011;SDS011;50211;52.768;12.124;2022-07-29T14:32:31;7.57;;;1.75;;
64011;SDS011;50211;52.768;12.124;2022-07-29T14:34:56;6.00;;;1.83;;
64011;SDS011;50211;52.768;12.124;2022-07-29T14:37:22;4.10;;;1.80;;
64011;SDS011;50211;52.768;12.124;2022-07-29T14:39:47;3.35;;;1.83;;
64011;SDS011;50211;52.768;12.124;2022-07-29T14:42:13;18.98;;;2.25;;
64011;SDS011;50211;52.768;12.124;2022-07-29T14:44:39;7.13;;;2.42;;
64011;SDS011;50211;52.768;12.124;2022-07-29T14:47:04;2.78;;;1.60;;
64011;SDS011;50211;52.768;12.124;2022-07-29T14:49:30;3.45;;;1.90;;
64011;SDS011;50211;52.768;12.124;2022-07-29T14:51:56;2.45;;;1.63;;
64011;SDS011;50211;52.768;12.124;2022-07-29T14:54:21;5.38;;;2.28;;
64011;SDS011;50211;52.768;12.124;2022-07-29T14:56:47;6.70;;;2.08;;
64011;SDS011;50211;52.768;12.124;2022-07-29T14:59:15;5.55;;;1.80;;
64011;SDS011;50211;52.768;12.124;2022-07-29T15:01:41;2.30;;;1.75;;
64011;SDS011;50211;52.768;12.124;2022-07-29T15:04:07;4.80;;;1.90;;
64011;SDS011;50211;52.768;12.124;2022-07-29T15:06:32;4.18;;;2.30;;
64011;SDS011;50211;52.768;12.124;2022-07-29T15:08:57;5.45;;;1.83;;
64011;SDS011;50211;52.768;12.124;2022-07-29T15:11:23;3.13;;;2.05;;
64011;SDS011;50211;52.768;12.124;2022-07-29T15:13:48;4.25;;;1.70;;
64011;SDS011;50211;52.768;12.124;2022-07-29T15:16:14;2.38;;;1.60;;
64011;SDS011;50211;52.768;12.124;2022-07-29T15:18:39;6.00;;;1.70;;
64011;SDS011;50211;52.768;12.124;2022-07-29T15:21:05;3.83;;;2.10;;
64011;SDS011;50211;52.768;12.124;2022-07-29T15:23:31;2.83;;;1.90;;
64011;SDS011;50211;52.768;12.124;2022-07-29T15:25:58;4.10;;;1.70;;